createdAt,value
2019-02-26T00:00:47.017Z,7.53
2019-02-26T00:03:14.263Z,8.50
2019-02-26T00:05:43.528Z,7.13
2019-02-26T00:08:16.996Z,9.10
2019-02-26T00:10:43.787Z,8.97
2019-02-26T00:13:13.032Z,10.17
2019-02-26T00:15:43.200Z,8.43
2019-02-26T00:18:13.974Z,8.27
2019-02-26T00:20:44.410Z,8.50
2019-02-26T00:23:13.686Z,7.37
2019-02-26T00:25:42.934Z,7.03
2019-02-26T00:28:13.160Z,7.50
2019-02-26T00:30:43.198Z,8.97
2019-02-26T00:33:12.459Z,18.00
2019-02-26T00:35:43.778Z,20.90
2019-02-26T00:41:35.780Z,18.90
2019-02-26T00:44:06.539Z,19.00
2019-02-26T00:46:37.039Z,19.13
2019-02-26T00:49:07.650Z,17.80
2019-02-26T00:51:39.009Z,17.13
2019-02-26T00:54:08.091Z,18.60
2019-02-26T00:56:38.619Z,19.17
2019-02-26T00:59:08.352Z,16.37
2019-02-26T01:01:37.631Z,11.70
2019-02-26T01:04:07.229Z,14.23
2019-02-26T01:06:36.488Z,13.13
2019-02-26T01:09:10.708Z,11.80
2019-02-26T01:11:38.997Z,14.20
2019-02-26T01:14:08.243Z,12.20
2019-02-26T01:16:39.317Z,12.97
2019-02-26T01:19:10.338Z,11.30
2019-02-26T01:21:39.503Z,10.60
2019-02-26T01:24:08.751Z,10.87
2019-02-26T01:26:38.166Z,14.10
2019-02-26T01:29:07.416Z,10.43
2019-02-26T01:31:36.667Z,10.03
2019-02-26T01:34:05.933Z,10.67
2019-02-26T01:36:35.204Z,8.33
2019-02-26T01:39:09.310Z,9.73
2019-02-26T01:41:41.335Z,8.27
2019-02-26T01:44:09.014Z,9.70
2019-02-26T01:46:38.900Z,11.23
2019-02-26T01:49:09.604Z,10.57
2019-02-26T01:51:38.836Z,7.40
2019-02-26T01:54:09.951Z,9.37
2019-02-26T01:56:39.094Z,9.13
2019-02-26T01:59:08.335Z,8.53
2019-02-26T02:01:40.018Z,9.17
2019-02-26T02:04:10.501Z,6.80
2019-02-26T02:06:41.234Z,13.37
2019-02-26T02:09:13.262Z,8.03
2019-02-26T02:11:41.607Z,8.20
2019-02-26T02:14:12.633Z,8.57
2019-02-26T02:16:41.826Z,13.50
2019-02-26T02:19:15.511Z,10.67
2019-02-26T02:21:43.265Z,7.70
2019-02-26T02:24:13.279Z,10.03
2019-02-26T02:26:47.520Z,11.63
2019-02-26T02:29:16.535Z,7.10
2019-02-26T02:31:45.535Z,7.33
2019-02-26T02:34:15.694Z,8.90
2019-02-26T02:36:44.950Z,8.90
2019-02-26T02:39:15.657Z,9.23
2019-02-26T02:41:47.973Z,7.57
2019-02-26T02:44:17.948Z,10.07
2019-02-26T02:46:47.161Z,7.23
2019-02-26T02:49:17.904Z,9.53
2019-02-26T02:51:47.338Z,8.13
2019-02-26T02:54:18.597Z,8.07
2019-02-26T02:56:47.628Z,7.53
2019-02-26T02:59:16.883Z,8.57
2019-02-26T03:01:49.016Z,7.60
2019-02-26T03:04:19.500Z,8.83
2019-02-26T03:06:50.063Z,8.80
2019-02-26T03:09:19.693Z,7.43
2019-02-26T03:11:51.908Z,9.33
2019-02-26T03:14:20.080Z,10.13
2019-02-26T03:16:51.389Z,8.27
2019-02-26T03:19:20.307Z,8.13
2019-02-26T03:21:51.917Z,7.63
2019-02-26T03:24:25.054Z,8.33
2019-02-26T03:26:51.570Z,9.10
2019-02-26T03:29:20.838Z,6.43
2019-02-26T03:31:54.841Z,8.70
2019-02-26T03:34:25.150Z,8.63
2019-02-26T03:36:52.038Z,9.80
2019-02-26T03:39:21.341Z,6.33
2019-02-26T03:41:51.565Z,9.07
2019-02-26T03:44:21.568Z,9.47
2019-02-26T03:46:50.834Z,8.63
2019-02-26T03:49:20.092Z,8.03
2019-02-26T03:51:49.350Z,9.43
2019-02-26T03:54:18.623Z,7.37
2019-02-26T03:56:47.895Z,8.37
2019-02-26T03:59:17.138Z,7.30
2019-02-26T04:01:46.381Z,9.87
2019-02-26T04:04:15.747Z,9.00
2019-02-26T04:06:47.138Z,9.23
2019-02-26T04:09:17.243Z,12.67
2019-02-26T04:11:49.663Z,8.60
2019-02-26T04:14:20.161Z,10.00
2019-02-26T04:16:49.315Z,9.87
2019-02-26T04:19:18.656Z,7.77
2019-02-26T04:22:26.198Z,10.07
2019-02-26T04:25:00.663Z,9.27
2019-02-26T04:28:01.683Z,10.90
2019-02-26T04:31:02.592Z,9.97
2019-02-26T04:33:55.262Z,10.77
2019-02-26T04:37:01.430Z,8.90
2019-02-26T04:40:14.276Z,12.73
2019-02-26T04:43:30.420Z,9.70
2019-02-26T04:46:39.556Z,10.00
2019-02-26T04:49:08.495Z,7.93
2019-02-26T04:51:39.896Z,11.17
2019-02-26T04:54:08.735Z,9.50
2019-02-26T04:56:40.162Z,9.00
2019-02-26T04:59:09.827Z,10.17
2019-02-26T05:01:40.009Z,10.63
2019-02-26T05:04:09.247Z,11.03
2019-02-26T05:06:38.544Z,12.33
2019-02-26T05:09:08.494Z,9.03
2019-02-26T05:11:40.769Z,9.20
2019-02-26T05:14:11.684Z,9.00
2019-02-26T05:16:40.830Z,11.13
2019-02-26T05:19:10.609Z,9.40
2019-02-26T05:21:41.288Z,8.53
2019-02-26T05:24:13.062Z,9.83
2019-02-26T05:26:41.515Z,9.70
2019-02-26T05:29:13.393Z,13.20
2019-02-26T05:31:43.283Z,9.67
2019-02-26T05:34:15.207Z,10.33
2019-02-26T05:36:46.105Z,9.33
2019-02-26T05:39:18.078Z,8.33
2019-02-26T05:41:45.597Z,9.03
2019-02-26T05:44:14.969Z,12.50
2019-02-26T05:46:44.214Z,8.13
2019-02-26T05:49:16.183Z,8.00
2019-02-26T05:51:45.038Z,12.60
2019-02-26T05:54:17.980Z,7.17
2019-02-26T05:56:49.744Z,12.90
2019-02-26T05:59:21.811Z,9.10
2019-02-26T06:01:54.814Z,9.20
2019-02-26T06:04:23.584Z,9.37
2019-02-26T06:06:56.381Z,13.10
2019-02-26T06:09:28.551Z,10.20
2019-02-26T06:11:57.947Z,11.47
2019-02-26T06:14:31.232Z,12.90
2019-02-26T06:17:01.364Z,13.53
2019-02-26T06:19:57.614Z,10.97
2019-02-26T06:22:29.638Z,14.97
2019-02-26T06:25:02.817Z,14.97
2019-02-26T06:27:30.841Z,10.90
2019-02-26T06:30:03.169Z,12.83
2019-02-26T06:32:32.845Z,12.17
2019-02-26T06:35:06.128Z,12.80
2019-02-26T06:37:35.946Z,11.80
2019-02-26T06:40:07.482Z,13.77
2019-02-26T06:42:38.053Z,14.43
2019-02-26T06:45:10.887Z,10.80
2019-02-26T06:47:40.857Z,11.17
2019-02-26T06:50:13.182Z,12.70
2019-02-26T06:52:44.729Z,13.80
2019-02-26T06:55:13.972Z,15.17
2019-02-26T06:57:47.132Z,10.53
2019-02-26T07:00:26.999Z,11.30
2019-02-26T07:02:56.087Z,13.27
2019-02-26T07:05:25.338Z,10.40
2019-02-26T07:07:56.933Z,10.53
2019-02-26T07:10:28.263Z,15.83
2019-02-26T07:12:56.829Z,14.23
2019-02-26T07:15:28.773Z,16.00
2019-02-26T07:18:00.095Z,12.73
2019-02-26T07:20:34.167Z,11.57
2019-02-26T07:22:59.232Z,14.77
2019-02-26T07:25:28.486Z,11.50
2019-02-26T07:27:58.923Z,13.43
2019-02-26T07:30:28.764Z,16.87
2019-02-26T07:32:58.023Z,14.93
2019-02-26T07:35:28.754Z,16.70
2019-02-26T07:37:59.497Z,17.73
2019-02-26T07:40:30.533Z,17.10
2019-02-26T07:43:00.297Z,16.77
2019-02-26T07:45:30.392Z,17.77
2019-02-26T07:48:01.059Z,15.97
2019-02-26T07:50:36.932Z,18.10
2019-02-26T07:53:02.527Z,15.73
2019-02-26T07:55:32.871Z,18.53
2019-02-26T07:58:02.894Z,15.27
2019-02-26T08:00:32.878Z,13.80
2019-02-26T08:03:04.667Z,17.30
2019-02-26T08:05:34.084Z,14.97
2019-02-26T08:08:03.377Z,22.30
2019-02-26T08:10:35.171Z,16.93
2019-02-26T08:13:05.697Z,20.00
2019-02-26T08:15:35.228Z,23.60
2019-02-26T08:18:05.677Z,21.07
2019-02-26T08:20:35.691Z,19.53
2019-02-26T08:23:05.929Z,22.17
2019-02-26T08:25:35.204Z,19.37
2019-02-26T08:28:04.513Z,18.47
2019-02-26T08:30:33.765Z,20.47
2019-02-26T08:33:05.255Z,21.87
2019-02-26T08:35:34.102Z,17.23
2019-02-26T08:38:05.653Z,17.57
2019-02-26T08:40:34.366Z,16.83
2019-02-26T08:43:03.641Z,17.83
2019-02-26T08:45:34.253Z,21.90
2019-02-26T08:48:03.528Z,19.83
2019-02-26T08:50:35.757Z,20.20
2019-02-26T08:53:03.793Z,20.77
2019-02-26T08:55:33.176Z,22.37
2019-02-26T08:58:02.491Z,18.03
2019-02-26T09:00:31.746Z,18.60
2019-02-26T09:03:01.013Z,22.33
2019-02-26T09:05:34.001Z,21.97
2019-02-26T09:08:01.322Z,16.87
2019-02-26T09:10:30.696Z,19.37
2019-02-26T09:13:00.016Z,21.57
2019-02-26T09:15:31.365Z,20.13
2019-02-26T09:18:00.309Z,18.53
2019-02-26T09:20:29.580Z,23.77
2019-02-26T09:23:01.331Z,20.73
2019-02-26T09:25:31.549Z,18.03
2019-02-26T09:28:02.037Z,18.97
2019-02-26T09:30:33.401Z,24.13
2019-02-26T09:33:03.384Z,17.97
2019-02-26T09:35:33.320Z,18.73
2019-02-26T09:38:02.630Z,17.83
2019-02-26T09:40:34.200Z,14.77
2019-02-26T09:43:02.865Z,14.00
2019-02-26T09:45:32.145Z,11.83
2019-02-26T09:48:01.427Z,15.00
2019-02-26T09:50:30.696Z,14.53
2019-02-26T09:52:59.965Z,16.27
2019-02-26T09:55:29.221Z,13.97
2019-02-26T09:57:58.533Z,14.40
2019-02-26T10:00:29.467Z,15.93
2019-02-26T10:02:58.994Z,17.87
2019-02-26T10:05:28.259Z,18.57
2019-02-26T10:08:00.031Z,18.00
2019-02-26T10:10:31.111Z,16.57
2019-02-26T10:13:02.181Z,17.40
2019-02-26T10:15:32.316Z,17.27
2019-02-26T10:18:04.865Z,18.90
2019-02-26T10:20:35.563Z,15.50
2019-02-26T10:23:06.457Z,17.23
2019-02-26T10:25:38.588Z,17.30
2019-02-26T10:28:09.648Z,14.73
2019-02-26T10:30:40.964Z,15.27
2019-02-26T10:33:09.259Z,14.43
2019-02-26T10:35:41.379Z,19.93
2019-02-26T10:38:11.526Z,18.80
2019-02-26T10:40:50.653Z,18.17
2019-02-26T10:43:11.590Z,18.17
2019-02-26T10:45:44.170Z,15.40
2019-02-26T10:48:13.707Z,14.80
2019-02-26T10:50:46.936Z,14.53
2019-02-26T10:53:18.879Z,14.33
2019-02-26T10:55:45.341Z,13.58
2019-02-26T10:58:14.942Z,16.50
2019-02-26T11:00:45.512Z,16.40
2019-02-26T11:03:15.463Z,13.32
2019-02-26T11:05:48.645Z,15.27
2019-02-26T11:08:16.816Z,12.30
2019-02-26T11:10:47.886Z,12.03
2019-02-26T11:13:18.226Z,15.57
2019-02-26T11:15:50.862Z,12.13
2019-02-26T11:18:21.132Z,11.40
2019-02-26T11:20:55.222Z,12.13
2019-02-26T11:23:30.360Z,13.93
2019-02-26T11:25:53.477Z,12.33
2019-02-26T11:28:27.258Z,13.17
2019-02-26T11:30:54.969Z,12.83
2019-02-26T11:33:25.045Z,14.93
2019-02-26T11:35:54.416Z,12.87
2019-02-26T11:38:23.681Z,12.20
2019-02-26T11:40:52.974Z,13.03
2019-02-26T11:43:23.919Z,12.03
2019-02-26T11:45:53.267Z,15.47
2019-02-26T11:48:23.369Z,9.40
2019-02-26T11:50:53.676Z,11.13
2019-02-26T11:53:22.965Z,11.93
2019-02-26T11:55:54.492Z,11.97
2019-02-26T11:58:24.265Z,10.43
2019-02-26T12:00:57.358Z,10.73
2019-02-26T12:03:31.088Z,11.87
2019-02-26T12:06:01.978Z,11.90
2019-02-26T12:08:30.391Z,10.68
2019-02-26T12:11:03.637Z,9.30
2019-02-26T12:13:30.684Z,12.63
2019-02-26T12:15:59.960Z,10.68
2019-02-26T12:18:29.249Z,10.35
2019-02-26T12:21:00.114Z,9.65
2019-02-26T12:23:29.511Z,15.48
2019-02-26T12:26:01.095Z,10.48
2019-02-26T12:28:34.155Z,11.35
2019-02-26T12:31:02.256Z,11.08
2019-02-26T12:33:32.562Z,10.55
2019-02-26T12:36:04.406Z,12.75
2019-02-26T12:38:36.590Z,12.18
2019-02-26T12:41:08.209Z,9.85
2019-02-26T12:43:36.624Z,10.15
2019-02-26T12:46:08.454Z,10.48
2019-02-26T12:48:40.488Z,11.65
2019-02-26T12:51:08.167Z,8.63
2019-02-26T12:53:49.061Z,8.93
2019-02-26T12:56:16.238Z,6.90
2019-02-26T12:58:48.467Z,9.48
2019-02-26T13:01:16.778Z,9.15
2019-02-26T13:03:49.764Z,10.35
2019-02-26T13:06:18.676Z,10.35
2019-02-26T13:08:50.506Z,9.05
2019-02-26T13:11:20.981Z,9.70
2019-02-26T13:13:52.596Z,11.85
2019-02-26T13:16:21.185Z,10.13
2019-02-26T13:18:51.667Z,10.70
2019-02-26T13:21:21.523Z,12.70
2019-02-26T13:23:50.810Z,9.47
2019-02-26T13:26:22.400Z,8.57
2019-02-26T13:28:52.950Z,9.63
2019-02-26T13:31:22.785Z,9.43
2019-02-26T13:33:52.383Z,9.60
2019-02-26T13:36:22.164Z,8.33
2019-02-26T13:38:51.481Z,9.50
2019-02-26T13:43:52.390Z,8.63
2019-02-26T13:46:21.746Z,9.87
2019-02-26T13:48:50.999Z,9.27
2019-02-26T13:51:20.282Z,10.27
2019-02-26T13:53:49.532Z,9.17
2019-02-26T13:56:18.842Z,7.03
2019-02-26T13:58:48.145Z,7.60
2019-02-26T14:01:17.562Z,7.03
2019-02-26T14:03:46.944Z,6.90
2019-02-26T14:06:16.235Z,6.37
2019-02-26T14:08:45.537Z,10.67
2019-02-26T14:11:14.864Z,10.80
2019-02-26T14:13:45.235Z,6.77
2019-02-26T14:16:14.543Z,6.53
2019-02-26T14:18:43.810Z,4.73
2019-02-26T14:21:13.370Z,5.13
2019-02-26T14:23:42.615Z,6.43
2019-02-26T14:26:11.984Z,5.43
2019-02-26T14:28:41.260Z,4.83
2019-02-26T14:31:10.527Z,5.10
2019-02-26T14:33:39.831Z,5.27
2019-02-26T14:36:10.910Z,6.80
2019-02-26T14:38:40.194Z,7.63
2019-02-26T14:41:09.519Z,5.50
2019-02-26T14:43:38.778Z,6.40
2019-02-26T14:46:08.079Z,5.30
2019-02-26T14:48:37.331Z,5.43
2019-02-26T14:51:06.654Z,6.13
2019-02-26T14:53:35.919Z,4.67
2019-02-26T14:56:05.458Z,5.30
2019-02-26T14:58:34.775Z,7.43
2019-02-26T15:01:04.341Z,7.47
2019-02-26T15:03:33.644Z,6.70
2019-02-26T15:06:02.910Z,11.37
2019-02-26T15:08:32.227Z,7.37
2019-02-26T15:11:01.499Z,11.10
2019-02-26T15:13:30.752Z,8.23
2019-02-26T15:16:00.045Z,7.30
2019-02-26T15:18:29.314Z,8.60
2019-02-26T15:20:58.644Z,7.23
2019-02-26T15:23:27.908Z,9.93
2019-02-26T15:25:57.175Z,5.33
2019-02-26T15:28:26.469Z,6.43
2019-02-26T15:30:55.946Z,8.80
2019-02-26T15:33:25.206Z,11.87
2019-02-26T15:35:54.467Z,7.43
2019-02-26T15:38:23.765Z,7.83
2019-02-26T15:40:53.358Z,8.03
2019-02-26T15:43:24.508Z,7.37
2019-02-26T15:45:53.801Z,11.10
2019-02-26T15:48:23.062Z,7.23
2019-02-26T15:50:52.350Z,6.67
2019-02-26T15:53:23.779Z,9.27
2019-02-26T15:55:52.695Z,8.50
2019-02-26T15:58:21.949Z,8.93
2019-02-26T16:09:42.301Z,10.40
2019-02-26T16:12:11.560Z,6.77
2019-02-26T16:14:40.846Z,8.50
2019-02-26T16:17:10.766Z,10.03
2019-02-26T16:19:40.534Z,11.07
2019-02-26T16:22:13.285Z,7.83
2019-02-26T16:24:44.843Z,12.23
2019-02-26T16:27:16.866Z,12.00
2019-02-26T16:30:10.021Z,15.03
2019-02-26T16:32:40.478Z,9.00
2019-02-26T16:35:12.386Z,10.43
2019-02-26T16:37:44.613Z,9.57
2019-02-26T16:40:16.353Z,8.87
2019-02-26T16:42:47.828Z,10.10
2019-02-26T16:45:20.814Z,13.07
2019-02-26T16:47:52.215Z,14.63
2019-02-26T16:50:24.115Z,12.87
2019-02-26T16:52:53.445Z,12.50
2019-02-26T16:55:22.735Z,13.00
2019-02-26T16:57:51.996Z,10.87
2019-02-26T17:00:22.516Z,10.97
2019-02-26T17:02:51.789Z,13.43
2019-02-26T17:05:21.108Z,30.07
2019-02-26T17:07:50.377Z,11.07
2019-02-26T17:10:19.916Z,12.63
2019-02-26T17:12:54.076Z,11.17
2019-02-26T17:15:26.980Z,20.47
2019-02-26T17:17:56.413Z,15.47
2019-02-26T17:20:26.474Z,14.93
2019-02-26T17:22:56.739Z,12.57
2019-02-26T17:25:28.399Z,12.47
2019-02-26T17:27:57.043Z,9.93
2019-02-26T17:30:29.454Z,11.03
2019-02-26T17:33:00.168Z,10.97
2019-02-26T17:35:29.731Z,12.90
2019-02-26T17:38:00.443Z,9.07
2019-02-26T17:40:30.806Z,12.23
2019-02-26T17:43:00.358Z,9.97
2019-02-26T17:45:29.665Z,10.60
2019-02-26T17:48:00.514Z,11.13
2019-02-26T17:50:31.892Z,10.23
2019-02-26T17:53:01.657Z,9.60
2019-02-26T17:55:31.579Z,9.20
2019-02-26T17:58:01.073Z,11.13
2019-02-26T18:00:36.394Z,19.53
2019-02-26T18:03:07.297Z,11.77
2019-02-26T18:05:47.274Z,15.87
2019-02-26T18:08:27.271Z,10.67
2019-02-26T18:10:57.181Z,17.13
2019-02-26T18:13:28.926Z,14.77
2019-02-26T18:15:59.224Z,17.83
2019-02-26T18:18:29.425Z,15.67
2019-02-26T18:20:59.160Z,11.23
2019-02-26T18:23:28.418Z,11.13
2019-02-26T18:25:57.874Z,14.97
2019-02-26T18:28:27.380Z,8.53
2019-02-26T18:30:56.673Z,11.20
2019-02-26T18:33:27.647Z,13.43
2019-02-26T18:35:56.934Z,9.90
2019-02-26T18:38:26.299Z,13.33
2019-02-26T18:40:55.684Z,10.60
2019-02-26T18:43:24.990Z,9.73
2019-02-26T18:45:56.210Z,11.10
2019-02-26T18:48:27.353Z,10.10
2019-02-26T18:50:59.668Z,12.90
2019-02-26T18:53:30.458Z,12.07
2019-02-26T18:56:04.294Z,15.07
2019-02-26T18:58:36.038Z,14.77
2019-02-26T19:01:06.719Z,11.70
2019-02-26T19:03:39.366Z,17.23
2019-02-26T19:06:10.909Z,13.30
2019-02-26T19:08:41.752Z,9.97
2019-02-26T19:11:16.686Z,9.03
2019-02-26T19:13:44.989Z,16.60
2019-02-26T19:16:21.179Z,15.50
2019-02-26T19:18:52.998Z,12.93
2019-02-26T19:21:23.873Z,35.47
2019-02-26T19:23:54.787Z,56.73
2019-02-26T19:26:25.695Z,26.93
2019-02-26T19:28:56.782Z,15.83
2019-02-26T19:31:28.869Z,20.70
2019-02-26T19:33:58.498Z,20.73
2019-02-26T19:36:34.938Z,17.93
2019-02-26T19:39:18.239Z,17.67
2019-02-26T19:41:55.609Z,17.10
2019-02-26T19:44:35.894Z,22.27
2019-02-26T19:47:15.968Z,17.60
2019-02-26T19:49:58.851Z,16.20
2019-02-26T19:52:57.204Z,18.60
2019-02-26T19:55:54.469Z,14.80
2019-02-26T19:58:34.165Z,14.50
2019-02-26T20:01:18.442Z,16.30
2019-02-26T20:04:02.858Z,17.43
2019-02-26T20:06:40.253Z,22.53
2019-02-26T20:09:41.615Z,19.80
2019-02-26T20:12:11.744Z,19.80
2019-02-26T20:14:42.390Z,18.70
2019-02-26T20:17:14.954Z,12.93
2019-02-26T20:19:46.212Z,22.07
2019-02-26T20:22:15.710Z,18.40
2019-02-26T20:24:48.235Z,16.83
2019-02-26T20:27:21.596Z,16.97
2019-02-26T20:29:48.650Z,15.03
2019-02-26T20:32:19.016Z,14.67
2019-02-26T20:34:49.874Z,17.97
2019-02-26T20:37:21.952Z,18.03
2019-02-26T20:39:53.800Z,15.00
2019-02-26T20:42:23.409Z,14.97
2019-02-26T20:44:59.015Z,14.60
2019-02-26T20:47:24.214Z,14.23
2019-02-26T20:49:54.039Z,16.30
2019-02-26T20:52:23.379Z,16.00
2019-02-26T20:54:52.699Z,15.80
2019-02-26T20:57:24.467Z,16.13
2019-02-26T20:59:53.803Z,14.17
2019-02-26T21:02:23.109Z,18.77
2019-02-26T21:04:53.827Z,13.97
2019-02-26T21:07:24.492Z,15.20
2019-02-26T21:10:03.339Z,14.70
2019-02-26T21:12:28.634Z,15.07
2019-02-26T21:14:56.212Z,15.37
2019-02-26T21:17:26.262Z,19.97
2019-02-26T21:19:55.569Z,14.93
2019-02-26T21:22:27.040Z,14.17
2019-02-26T21:24:57.857Z,17.03
2019-02-26T21:27:27.846Z,14.37
2019-02-26T21:29:59.264Z,17.07
2019-02-26T21:32:28.521Z,15.93
2019-02-26T21:34:59.218Z,15.37
2019-02-26T21:37:32.625Z,15.60
2019-02-26T21:39:59.527Z,16.63
2019-02-26T21:42:29.580Z,19.23
2019-02-26T21:44:58.950Z,14.70
2019-02-26T21:47:28.446Z,15.97
2019-02-26T21:49:57.743Z,16.67
2019-02-26T21:52:27.167Z,14.70
2019-02-26T21:54:58.133Z,17.17
2019-02-26T21:57:27.647Z,15.37
2019-02-26T21:59:56.908Z,17.97
2019-02-26T22:02:26.423Z,16.17
2019-02-26T22:04:55.698Z,13.23
2019-02-26T22:07:25.201Z,16.77
2019-02-26T22:09:54.499Z,12.80
2019-02-26T22:12:24.113Z,11.33
2019-02-26T22:14:54.072Z,13.30
2019-02-26T22:17:25.211Z,12.63
2019-02-26T22:19:54.309Z,14.13
2019-02-26T22:22:26.225Z,11.77
2019-02-26T22:24:57.781Z,14.70
2019-02-26T22:27:27.258Z,13.77
2019-02-26T22:29:56.669Z,13.17
2019-02-26T22:32:27.806Z,14.93
2019-02-26T22:34:58.384Z,20.40
2019-02-26T22:37:27.646Z,15.07
2019-02-26T22:39:57.074Z,11.90
2019-02-26T22:42:26.598Z,12.87
2019-02-26T22:44:56.180Z,17.70
2019-02-26T22:47:25.449Z,16.53
2019-02-26T22:49:54.742Z,13.43
2019-02-26T22:52:24.757Z,13.97
2019-02-26T22:54:55.632Z,12.00
2019-02-26T22:57:24.913Z,14.83
2019-02-26T22:59:54.156Z,14.30
2019-02-26T23:02:24.329Z,15.83
2019-02-26T23:04:54.312Z,17.20
2019-02-26T23:07:24.265Z,15.97
2019-02-26T23:09:55.286Z,15.20
2019-02-26T23:12:24.864Z,19.47
2019-02-26T23:14:54.661Z,16.13
2019-02-26T23:17:24.862Z,18.10
2019-02-26T23:19:55.177Z,15.77
2019-02-26T23:22:25.046Z,17.60
2019-02-26T23:24:54.455Z,16.60
2019-02-26T23:27:23.758Z,14.93
2019-02-26T23:29:53.257Z,18.10
2019-02-26T23:32:23.430Z,18.27
2019-02-26T23:35:08.772Z,16.43
2019-02-26T23:37:38.371Z,17.33
2019-02-26T23:40:09.022Z,16.83
2019-02-26T23:42:39.080Z,17.33
2019-02-26T23:45:09.527Z,15.13
2019-02-26T23:47:39.173Z,16.47
2019-02-26T23:50:08.879Z,19.50
2019-02-26T23:52:38.136Z,20.27
2019-02-26T23:55:13.108Z,16.97
2019-02-26T23:57:40.011Z,17.90
